createdAt,value
2022-08-03T00:00:21.423Z,4.40
2022-08-03T00:02:47.986Z,4.13
2022-08-03T00:05:14.409Z,4.22
2022-08-03T00:07:41.339Z,4.10
2022-08-03T00:10:10.550Z,4.47
2022-08-03T00:12:36.883Z,4.70
2022-08-03T00:15:03.724Z,4.72
2022-08-03T00:17:52.978Z,4.13
2022-08-03T00:20:20.585Z,4.88
2022-08-03T00:22:47.382Z,4.53
2022-08-03T00:25:13.752Z,4.50
2022-08-03T00:27:40.148Z,4.60
2022-08-03T00:30:06.976Z,4.68
2022-08-03T00:32:33.370Z,4.32
2022-08-03T00:34:59.796Z,4.10
2022-08-03T00:37:41.570Z,4.30
2022-08-03T00:40:09.297Z,3.88
2022-08-03T00:42:45.870Z,4.18
2022-08-03T00:45:12.297Z,4.70
2022-08-03T00:47:39.834Z,3.83
2022-08-03T00:50:06.446Z,4.20
2022-08-03T00:52:32.929Z,4.90
2022-08-03T00:55:00.574Z,3.95
2022-08-03T00:57:27.280Z,4.35
2022-08-03T00:59:54.395Z,4.43
2022-08-03T01:02:20.735Z,4.82
2022-08-03T01:04:47.345Z,4.53
2022-08-03T01:07:18.764Z,4.80
2022-08-03T01:09:55.606Z,3.90
2022-08-03T01:12:37.122Z,4.10
2022-08-03T01:15:09.437Z,4.28
2022-08-03T01:17:40.137Z,4.68
2022-08-03T01:20:09.401Z,4.78
2022-08-03T01:22:51.066Z,4.50
2022-08-03T01:25:36.537Z,4.75
2022-08-03T01:28:20.093Z,4.82
2022-08-03T01:30:47.248Z,4.60
2022-08-03T01:33:19.020Z,5.00
2022-08-03T01:35:47.356Z,4.97
2022-08-03T01:38:15.188Z,5.90
2022-08-03T01:40:42.701Z,5.72
2022-08-03T01:43:10.669Z,5.10
2022-08-03T01:45:37.720Z,5.38
2022-08-03T01:48:05.010Z,5.97
2022-08-03T01:50:31.974Z,5.70
2022-08-03T01:52:58.597Z,5.32
2022-08-03T01:55:28.272Z,5.90
2022-08-03T01:58:05.299Z,5.75
2022-08-03T02:00:35.209Z,5.30
2022-08-03T02:03:05.475Z,4.95
2022-08-03T02:05:32.715Z,5.38
2022-08-03T02:07:59.887Z,5.65
2022-08-03T02:10:35.223Z,5.30
2022-08-03T02:13:03.081Z,5.07
2022-08-03T02:15:30.374Z,5.05
2022-08-03T02:17:57.678Z,5.15
2022-08-03T02:20:24.951Z,5.47
2022-08-03T02:22:51.363Z,5.13
2022-08-03T02:25:17.957Z,4.43
2022-08-03T02:27:52.241Z,5.10
2022-08-03T02:30:19.466Z,5.43
2022-08-03T02:32:57.839Z,5.20
2022-08-03T02:35:25.303Z,5.63
2022-08-03T02:37:55.894Z,4.70
2022-08-03T02:40:23.379Z,4.90
2022-08-03T02:42:51.381Z,5.10
2022-08-03T02:45:18.471Z,4.82
2022-08-03T02:47:54.329Z,5.25
2022-08-03T02:50:22.103Z,4.65
2022-08-03T02:52:49.620Z,5.03
2022-08-03T02:55:16.181Z,4.97
2022-08-03T02:57:43.866Z,5.38
2022-08-03T03:00:10.476Z,6.03
2022-08-03T03:02:37.080Z,5.80
2022-08-03T03:05:55.137Z,5.20
2022-08-03T03:07:53.212Z,5.10
2022-08-03T03:10:22.162Z,5.60
2022-08-03T03:12:50.211Z,5.78
2022-08-03T03:15:16.662Z,5.35
2022-08-03T03:17:43.612Z,5.68
2022-08-03T03:20:10.669Z,5.43
2022-08-03T03:22:38.001Z,6.70
2022-08-03T03:25:06.694Z,6.47
2022-08-03T03:27:34.225Z,6.53
2022-08-03T03:30:00.631Z,6.95
2022-08-03T03:32:27.934Z,6.72
2022-08-03T03:34:55.032Z,7.85
2022-08-03T03:37:24.773Z,8.13
2022-08-03T03:39:51.130Z,7.72
2022-08-03T03:42:17.762Z,8.63
2022-08-03T03:44:44.219Z,9.13
2022-08-03T03:47:10.701Z,7.95
2022-08-03T03:49:39.339Z,8.48
2022-08-03T03:52:08.107Z,8.45
2022-08-03T03:54:41.371Z,7.90
2022-08-03T03:57:08.044Z,7.85
2022-08-03T03:59:39.767Z,7.95
2022-08-03T04:02:09.714Z,7.88
2022-08-03T04:04:55.320Z,7.78
2022-08-03T04:07:41.554Z,7.28
2022-08-03T04:12:53.100Z,8.07
2022-08-03T04:15:21.695Z,8.25
2022-08-03T04:17:50.244Z,7.93
2022-08-03T04:20:17.347Z,7.90
2022-08-03T04:22:43.810Z,7.50
2022-08-03T04:25:14.185Z,7.38
2022-08-03T04:27:41.550Z,7.70
2022-08-03T04:30:09.225Z,7.20
2022-08-03T04:32:37.095Z,7.85
2022-08-03T04:35:03.630Z,7.50
2022-08-03T04:37:32.772Z,7.85
2022-08-03T04:40:01.823Z,7.63
2022-08-03T04:42:30.806Z,7.70
2022-08-03T04:45:01.165Z,7.35
2022-08-03T04:47:28.275Z,7.20
2022-08-03T04:49:54.948Z,7.18
2022-08-03T04:52:21.393Z,6.70
2022-08-03T04:54:50.601Z,6.32
2022-08-03T04:57:22.134Z,7.20
2022-08-03T04:59:54.670Z,6.60
2022-08-03T05:02:24.492Z,6.93
2022-08-03T05:04:50.877Z,6.75
2022-08-03T05:07:20.493Z,6.93
2022-08-03T05:09:52.683Z,6.55
2022-08-03T05:12:24.186Z,6.88
2022-08-03T05:14:50.523Z,6.32
2022-08-03T05:17:16.870Z,6.53
2022-08-03T05:19:43.255Z,5.82
2022-08-03T05:22:09.667Z,5.85
2022-08-03T05:24:36.024Z,6.10
2022-08-03T05:27:02.424Z,5.88
2022-08-03T05:29:28.837Z,5.80
2022-08-03T05:31:55.679Z,5.88
2022-08-03T05:34:22.019Z,5.50
2022-08-03T05:36:48.386Z,5.82
2022-08-03T05:39:14.807Z,5.43
2022-08-03T05:41:41.188Z,5.25
2022-08-03T05:44:07.590Z,4.93
2022-08-03T05:46:33.986Z,4.75
2022-08-03T05:49:00.429Z,4.65
2022-08-03T05:51:27.759Z,4.68
2022-08-03T05:53:54.143Z,4.78
2022-08-03T05:56:25.218Z,4.93
2022-08-03T05:58:52.548Z,4.15
2022-08-03T06:01:19.328Z,4.60
2022-08-03T06:03:46.046Z,4.25
2022-08-03T06:06:12.661Z,4.28
2022-08-03T06:08:39.821Z,3.83
2022-08-03T06:11:06.470Z,3.88
2022-08-03T06:13:32.866Z,3.92
2022-08-03T06:15:59.215Z,3.40
2022-08-03T06:18:25.795Z,3.08
2022-08-03T06:20:52.559Z,3.55
2022-08-03T06:23:19.329Z,3.13
2022-08-03T06:25:46.285Z,3.10
2022-08-03T06:28:42.487Z,2.70
2022-08-03T06:31:00.968Z,2.78
2022-08-03T06:34:22.876Z,2.58
2022-08-03T06:36:13.896Z,2.38
2022-08-03T06:38:40.324Z,2.80
2022-08-03T06:41:06.747Z,2.35
2022-08-03T06:43:37.375Z,2.50
2022-08-03T06:46:05.233Z,2.00
2022-08-03T06:48:31.842Z,2.35
2022-08-03T06:50:58.217Z,2.30
2022-08-03T06:53:24.607Z,2.10
2022-08-03T06:55:54.404Z,2.80
2022-08-03T06:58:21.706Z,2.20
2022-08-03T07:00:48.099Z,2.30
2022-08-03T07:03:15.125Z,2.05
2022-08-03T07:05:42.306Z,2.25
2022-08-03T07:08:08.725Z,1.90
2022-08-03T07:10:35.135Z,2.10
2022-08-03T07:13:01.691Z,1.70
2022-08-03T07:15:54.631Z,2.38
2022-08-03T07:18:14.520Z,2.92
2022-08-03T07:20:41.029Z,1.83
2022-08-03T07:23:07.369Z,1.70
2022-08-03T07:25:33.729Z,1.90
2022-08-03T07:28:00.078Z,1.70
2022-08-03T07:30:26.557Z,1.80
2022-08-03T07:32:52.942Z,1.80
2022-08-03T07:35:25.117Z,1.60
2022-08-03T07:37:54.319Z,1.30
2022-08-03T07:40:22.063Z,1.50
2022-08-03T07:42:48.622Z,1.50
2022-08-03T07:45:19.749Z,1.50
2022-08-03T07:47:46.174Z,1.45
2022-08-03T07:50:20.072Z,1.45
2022-08-03T07:52:49.785Z,1.85
2022-08-03T07:55:16.941Z,1.77
2022-08-03T07:57:43.391Z,1.60
2022-08-03T08:00:17.485Z,1.80
2022-08-03T08:02:44.471Z,2.15
2022-08-03T08:05:11.250Z,1.40
2022-08-03T08:07:40.784Z,1.50
2022-08-03T08:10:08.210Z,1.63
2022-08-03T08:12:34.615Z,1.70
2022-08-03T08:15:01.287Z,1.58
2022-08-03T08:17:27.675Z,1.45
2022-08-03T08:19:54.065Z,1.50
2022-08-03T08:22:25.868Z,1.52
2022-08-03T08:27:23.522Z,1.58
2022-08-03T08:29:55.221Z,1.60
2022-08-03T08:32:23.969Z,1.27
2022-08-03T08:34:50.952Z,1.80
2022-08-03T08:37:17.543Z,1.60
2022-08-03T08:39:43.916Z,1.25
2022-08-03T08:42:10.453Z,1.48
2022-08-03T08:44:36.942Z,1.50
2022-08-03T08:47:03.734Z,1.15
2022-08-03T08:49:32.614Z,1.45
2022-08-03T08:52:01.062Z,1.38
2022-08-03T08:54:28.683Z,1.50
2022-08-03T08:56:56.181Z,1.40
2022-08-03T08:59:22.872Z,1.40
2022-08-03T09:01:49.493Z,1.45
2022-08-03T09:04:16.077Z,1.45
2022-08-03T09:06:50.313Z,1.60
2022-08-03T09:10:08.450Z,1.50
2022-08-03T09:12:39.059Z,1.38
2022-08-03T09:15:17.199Z,1.55
2022-08-03T09:17:47.591Z,1.60
2022-08-03T09:20:16.867Z,1.67
2022-08-03T09:23:44.808Z,1.30
2022-08-03T09:26:01.641Z,1.58
2022-08-03T09:28:59.874Z,1.80
2022-08-03T09:31:20.342Z,1.50
2022-08-03T09:33:47.600Z,1.40
2022-08-03T09:36:34.455Z,1.48
2022-08-03T09:39:02.877Z,1.48
2022-08-03T09:41:29.255Z,1.60
2022-08-03T09:43:57.091Z,1.30
2022-08-03T09:46:23.511Z,1.80
2022-08-03T09:48:49.929Z,1.45
2022-08-03T09:51:33.213Z,1.40
2022-08-03T09:54:16.339Z,1.15
2022-08-03T09:56:47.285Z,1.20
2022-08-03T09:59:22.656Z,1.15
2022-08-03T10:04:17.003Z,1.30
2022-08-03T10:06:44.116Z,1.38
2022-08-03T10:09:10.478Z,1.58
2022-08-03T10:11:42.136Z,1.30
2022-08-03T10:14:18.884Z,1.30
2022-08-03T10:16:46.442Z,1.50
2022-08-03T10:19:14.301Z,1.30
2022-08-03T10:21:42.044Z,1.30
2022-08-03T10:24:12.382Z,1.20
2022-08-03T10:26:49.548Z,1.42
2022-08-03T10:29:26.634Z,1.40
2022-08-03T10:31:58.098Z,1.27
2022-08-03T10:34:29.090Z,1.30
2022-08-03T10:36:57.230Z,1.17
2022-08-03T10:39:27.359Z,1.50
2022-08-03T10:41:55.280Z,1.23
2022-08-03T10:44:23.886Z,1.40
2022-08-03T10:46:50.799Z,1.50
2022-08-03T10:49:33.851Z,1.33
2022-08-03T10:52:00.680Z,1.83
2022-08-03T10:55:03.250Z,1.50
2022-08-03T10:57:45.864Z,1.52
2022-08-03T11:00:19.089Z,1.40
2022-08-03T11:03:04.212Z,1.42
2022-08-03T11:05:32.191Z,1.50
2022-08-03T11:08:17.235Z,1.42
2022-08-03T11:13:10.917Z,1.70
2022-08-03T11:15:39.706Z,1.70
2022-08-03T11:18:13.717Z,1.40
2022-08-03T11:20:53.505Z,1.75
2022-08-03T11:24:02.643Z,1.60
2022-08-03T11:26:25.992Z,1.70
2022-08-03T11:28:52.395Z,1.50
2022-08-03T11:31:46.710Z,1.50
2022-08-03T11:34:08.996Z,1.58
2022-08-03T11:36:53.998Z,1.42
2022-08-03T11:41:46.672Z,1.60
2022-08-03T11:44:33.007Z,1.60
2022-08-03T11:47:00.077Z,1.40
2022-08-03T11:49:26.493Z,1.50
2022-08-03T11:51:55.891Z,1.40
2022-08-03T11:54:22.824Z,1.45
2022-08-03T11:56:50.145Z,2.00
2022-08-03T11:59:21.821Z,1.70
2022-08-03T12:01:49.220Z,1.58
2022-08-03T12:04:16.576Z,1.23
2022-08-03T12:06:57.933Z,1.45
2022-08-03T12:09:24.432Z,1.50
2022-08-03T12:11:59.485Z,1.42
2022-08-03T12:14:48.712Z,1.42
2022-08-03T12:17:13.659Z,1.50
2022-08-03T12:19:43.497Z,1.40
2022-08-03T12:22:09.866Z,1.60
2022-08-03T12:24:42.797Z,1.58
2022-08-03T12:27:09.350Z,1.65
2022-08-03T12:29:35.932Z,1.70
2022-08-03T12:32:02.333Z,1.65
2022-08-03T12:34:48.171Z,1.80
2022-08-03T12:37:22.110Z,1.80
2022-08-03T12:40:10.211Z,1.90
2022-08-03T12:42:37.891Z,2.00
2022-08-03T12:45:19.613Z,1.90
2022-08-03T12:47:59.853Z,1.80
2022-08-03T12:50:31.325Z,1.98
2022-08-03T12:52:59.298Z,1.77
2022-08-03T12:55:57.267Z,1.52
2022-08-03T12:58:34.229Z,1.87
2022-08-03T13:01:01.643Z,1.60
2022-08-03T13:03:42.763Z,1.67
2022-08-03T13:06:13.970Z,1.50
2022-08-03T13:08:40.462Z,1.58
2022-08-03T13:11:19.259Z,1.55
2022-08-03T13:13:46.263Z,1.58
2022-08-03T13:16:17.208Z,1.70
2022-08-03T13:18:47.122Z,1.70
2022-08-03T13:21:15.660Z,1.45
2022-08-03T13:23:42.735Z,1.90
2022-08-03T13:26:09.620Z,1.60
2022-08-03T13:28:39.026Z,1.83
2022-08-03T13:31:06.176Z,2.00
2022-08-03T13:33:33.758Z,1.65
2022-08-03T13:36:01.402Z,1.90
2022-08-03T13:38:27.887Z,1.50
2022-08-03T13:40:54.961Z,1.80
2022-08-03T13:43:22.478Z,1.90
2022-08-03T13:45:56.556Z,1.60
2022-08-03T13:48:37.080Z,1.95
2022-08-03T13:51:11.654Z,1.95
2022-08-03T13:56:15.110Z,1.90
2022-08-03T13:58:44.409Z,1.73
2022-08-03T14:01:11.402Z,1.90
2022-08-03T14:03:38.012Z,2.05
2022-08-03T14:06:04.409Z,1.70
2022-08-03T14:08:30.849Z,2.05
2022-08-03T14:10:57.432Z,1.80
2022-08-03T14:13:25.017Z,1.95
2022-08-03T14:15:51.903Z,1.80
2022-08-03T14:18:28.713Z,2.00
2022-08-03T14:21:04.958Z,1.80
2022-08-03T14:23:32.588Z,1.98
2022-08-03T14:25:59.366Z,1.90
2022-08-03T14:28:25.779Z,2.00
2022-08-03T14:30:52.752Z,2.00
2022-08-03T14:33:22.304Z,2.20
2022-08-03T14:35:48.939Z,1.80
2022-08-03T14:38:15.494Z,2.10
2022-08-03T14:40:42.011Z,2.00
2022-08-03T14:43:08.386Z,1.70
2022-08-03T14:45:34.774Z,1.70
2022-08-03T14:50:24.960Z,1.67
2022-08-03T14:50:51.277Z,1.80
2022-08-03T14:53:18.431Z,1.90
2022-08-03T14:55:50.020Z,1.90
2022-08-03T14:58:19.699Z,2.00
2022-08-03T15:00:47.720Z,1.80
2022-08-03T15:03:15.907Z,1.52
2022-08-03T15:05:43.748Z,1.90
2022-08-03T15:08:10.123Z,2.17
2022-08-03T15:10:44.400Z,2.15
2022-08-03T15:13:12.803Z,2.10
2022-08-03T15:15:39.219Z,1.88
2022-08-03T15:18:05.726Z,2.13
2022-08-03T15:20:43.932Z,1.70
2022-08-03T15:23:11.909Z,1.80
2022-08-03T15:26:29.500Z,1.77
2022-08-03T15:28:24.744Z,2.00
2022-08-03T15:30:51.821Z,1.80
2022-08-03T15:33:18.482Z,1.80
2022-08-03T15:35:46.408Z,1.90
2022-08-03T15:38:13.211Z,1.90
2022-08-03T15:40:39.877Z,1.95
2022-08-03T15:43:06.527Z,2.00
2022-08-03T15:45:36.532Z,2.17
2022-08-03T15:48:04.089Z,1.90
2022-08-03T15:50:30.607Z,1.70
2022-08-03T15:52:57.130Z,1.80
2022-08-03T15:55:23.580Z,1.90
2022-08-03T15:59:04.324Z,1.80
2022-08-03T16:00:36.448Z,2.00
2022-08-03T16:03:02.881Z,1.60
2022-08-03T16:05:29.483Z,1.65
2022-08-03T16:08:04.025Z,1.80
2022-08-03T16:10:31.941Z,1.80
2022-08-03T16:13:01.360Z,2.03
2022-08-03T16:15:27.775Z,1.60
2022-08-03T16:17:54.312Z,1.73
2022-08-03T16:20:31.668Z,1.95
2022-08-03T16:23:10.846Z,1.75
2022-08-03T16:25:38.347Z,3.08
2022-08-03T16:28:07.771Z,1.50
2022-08-03T16:30:39.691Z,1.75
2022-08-03T16:33:06.187Z,1.77
2022-08-03T16:35:32.665Z,1.65
2022-08-03T16:37:59.059Z,1.67
2022-08-03T16:40:26.115Z,2.10
2022-08-03T16:42:52.519Z,1.70
2022-08-03T16:45:19.116Z,1.63
2022-08-03T16:47:45.546Z,1.50
2022-08-03T16:50:19.065Z,1.75
2022-08-03T16:52:47.353Z,1.70
2022-08-03T16:55:15.365Z,1.67
2022-08-03T16:57:59.118Z,1.80
2022-08-03T17:00:32.907Z,2.80
2022-08-03T17:03:00.476Z,1.77
2022-08-03T17:05:27.489Z,1.60
2022-08-03T17:08:12.670Z,3.20
2022-08-03T17:10:41.353Z,2.40
2022-08-03T17:13:11.120Z,1.70
2022-08-03T17:15:58.622Z,1.77
2022-08-03T17:18:29.723Z,1.63
2022-08-03T17:20:57.447Z,1.75
2022-08-03T17:23:34.414Z,1.60
2022-08-03T17:26:04.275Z,1.85
2022-08-03T17:28:50.237Z,1.58
2022-08-03T17:31:32.067Z,1.52
2022-08-03T17:34:09.962Z,1.60
2022-08-03T17:37:02.535Z,1.45
2022-08-03T17:39:42.131Z,1.40
2022-08-03T17:42:31.300Z,1.70
2022-08-03T17:45:01.727Z,1.77
2022-08-03T17:47:41.331Z,1.73
2022-08-03T17:50:23.283Z,1.83
2022-08-03T17:52:52.465Z,2.53
2022-08-03T17:55:55.979Z,26.60
2022-08-03T17:58:18.160Z,18.60
2022-08-03T18:02:03.350Z,7.90
2022-08-03T18:06:56.746Z,7.90
2022-08-03T18:10:03.865Z,5.78
2022-08-03T18:12:13.994Z,2.97
2022-08-03T18:14:57.726Z,3.30
2022-08-03T18:17:55.965Z,2.03
2022-08-03T18:20:32.859Z,2.90
2022-08-03T18:23:04.970Z,3.53
2022-08-03T18:25:45.353Z,5.05
2022-08-03T18:28:16.406Z,3.10
2022-08-03T18:30:54.437Z,2.25
2022-08-03T18:34:19.922Z,2.40
2022-08-03T18:36:09.366Z,2.38
2022-08-03T18:38:36.031Z,2.92
2022-08-03T18:41:02.944Z,2.33
2022-08-03T18:43:46.285Z,1.90
2022-08-03T18:46:20.284Z,2.47
2022-08-03T18:49:08.190Z,2.25
2022-08-03T18:51:43.391Z,2.05
2022-08-03T18:54:45.643Z,2.75
2022-08-03T18:57:16.934Z,1.80
2022-08-03T18:59:55.126Z,2.33
2022-08-03T19:02:29.629Z,2.00
2022-08-03T19:05:03.439Z,2.00
2022-08-03T19:07:36.133Z,1.92
2022-08-03T19:10:09.458Z,2.10
2022-08-03T19:12:44.479Z,2.15
2022-08-03T19:15:13.529Z,2.03
2022-08-03T19:17:50.118Z,1.75
2022-08-03T19:20:20.767Z,1.90
2022-08-03T19:22:47.964Z,2.15
2022-08-03T19:25:14.541Z,2.00
2022-08-03T19:27:43.514Z,1.80
2022-08-03T19:30:21.786Z,2.05
2022-08-03T19:32:53.283Z,1.92
2022-08-03T19:35:51.595Z,2.03
2022-08-03T19:38:06.317Z,2.00
2022-08-03T19:40:35.337Z,1.80
2022-08-03T19:43:07.749Z,2.00
2022-08-03T19:46:04.443Z,2.30
2022-08-03T19:48:28.715Z,2.28
2022-08-03T19:50:56.804Z,2.25
2022-08-03T19:53:35.337Z,2.25
2022-08-03T19:56:04.204Z,2.60
2022-08-03T19:58:31.213Z,2.58
2022-08-03T20:00:58.185Z,3.08
2022-08-03T20:03:42.894Z,2.85
2022-08-03T20:06:12.160Z,2.90
2022-08-03T20:08:44.067Z,2.70
2022-08-03T20:11:11.031Z,2.90
2022-08-03T20:13:38.973Z,2.53
2022-08-03T20:16:05.959Z,2.67
2022-08-03T20:18:39.306Z,2.63
2022-08-03T20:21:14.745Z,2.85
2022-08-03T20:24:03.100Z,2.60
2022-08-03T20:26:29.761Z,2.60
2022-08-03T20:29:08.944Z,2.50
2022-08-03T20:31:37.439Z,2.30
2022-08-03T20:34:04.823Z,2.28
2022-08-03T20:36:31.634Z,2.72
2022-08-03T20:38:58.877Z,2.28
2022-08-03T20:41:26.153Z,2.38
2022-08-03T20:43:55.609Z,2.70
2022-08-03T20:46:31.684Z,2.40
2022-08-03T20:49:03.951Z,2.50
2022-08-03T20:51:49.039Z,2.25
2022-08-03T20:54:23.150Z,2.40
2022-08-03T20:56:56.781Z,2.50
2022-08-03T20:59:23.384Z,2.40
2022-08-03T21:01:50.662Z,2.63
2022-08-03T21:04:21.092Z,2.58
2022-08-03T21:07:00.630Z,2.50
2022-08-03T21:09:33.347Z,2.60
2022-08-03T21:12:03.007Z,2.70
2022-08-03T21:13:05.226Z,7.95
2022-08-03T21:14:35.550Z,2.33
2022-08-03T21:17:09.433Z,2.55
2022-08-03T21:19:41.497Z,2.60
2022-08-03T21:22:21.702Z,2.72
2022-08-03T21:24:54.042Z,2.97
2022-08-03T21:27:23.294Z,3.30
2022-08-03T21:29:53.119Z,2.88
2022-08-03T21:32:32.696Z,3.60
2022-08-03T21:35:00.080Z,5.43
2022-08-03T21:37:27.075Z,4.57
2022-08-03T21:39:54.083Z,4.07
2022-08-03T21:42:23.654Z,3.00
2022-08-03T21:44:51.620Z,3.13
2022-08-03T21:47:18.226Z,3.00
2022-08-03T21:50:04.434Z,2.65
2022-08-03T21:52:35.487Z,2.33
2022-08-03T21:55:03.758Z,2.60
2022-08-03T21:57:31.161Z,2.90
2022-08-03T22:00:02.257Z,2.92
2022-08-03T22:02:31.544Z,2.80
2022-08-03T22:04:58.883Z,2.80
2022-08-03T22:07:27.503Z,2.80
2022-08-03T22:09:57.967Z,2.90
2022-08-03T22:12:25.203Z,2.70
2022-08-03T22:14:53.575Z,2.75
2022-08-03T22:17:54.920Z,2.75
2022-08-03T22:20:14.992Z,3.00
2022-08-03T22:22:43.529Z,2.60
2022-08-03T22:25:23.739Z,3.15
2022-08-03T22:27:52.457Z,3.08
2022-08-03T22:30:19.358Z,3.10
2022-08-03T22:32:46.296Z,3.20
2022-08-03T22:35:13.694Z,3.13
2022-08-03T22:37:41.035Z,3.08
2022-08-03T22:40:10.319Z,2.78
2022-08-03T22:42:36.842Z,2.78
2022-08-03T22:45:05.069Z,2.88
2022-08-03T22:47:34.218Z,3.28
2022-08-03T22:50:31.539Z,3.08
2022-08-03T22:52:49.241Z,3.20
2022-08-03T22:55:18.830Z,2.70
2022-08-03T22:57:55.968Z,3.15
2022-08-03T23:00:25.860Z,3.20
2022-08-03T23:02:54.063Z,3.22
2022-08-03T23:06:01.114Z,2.70
2022-08-03T23:08:11.472Z,3.13
2022-08-03T23:10:42.582Z,3.20
2022-08-03T23:13:13.311Z,2.92
2022-08-03T23:15:40.012Z,3.05
2022-08-03T23:18:10.606Z,2.95
2022-08-03T23:20:37.803Z,2.90
2022-08-03T23:23:05.116Z,3.40
2022-08-03T23:25:31.622Z,3.47
2022-08-03T23:28:05.475Z,3.15
2022-08-03T23:30:33.234Z,3.40
2022-08-03T23:33:00.795Z,3.13
2022-08-03T23:36:28.660Z,2.83
2022-08-03T23:38:34.653Z,3.00
2022-08-03T23:41:02.040Z,2.78
2022-08-03T23:43:45.027Z,3.10
2022-08-03T23:46:19.707Z,3.10
2022-08-03T23:48:46.162Z,3.15
2022-08-03T23:51:36.968Z,2.80
2022-08-03T23:54:06.427Z,3.22
2022-08-03T23:56:45.526Z,2.88
2022-08-03T23:59:35.160Z,3.20
